sensor_id;sensor_type;location;lat;lon;timestamp;pressure;altitude;pressure_sealevel;temperature;humidity
64189;BME280;50493;50.970;10.082;2023-03-31T00:01:23;98429.16;;;9.52;69.20
64189;BME280;50493;50.970;10.082;2023-03-31T00:03:49;98431.06;;;9.46;69.01
64189;BME280;50493;50.970;10.082;2023-03-31T00:06:14;98427.22;;;9.57;69.32
64189;BME280;50493;50.970;10.082;2023-03-31T00:08:42;98427.81;;;9.67;68.29
64189;BME280;50493;50.970;10.082;2023-03-31T00:11:08;98428.44;;;9.73;68.57
64189;BME280;50493;50.970;10.082;2023-03-31T00:13:35;98420.69;;;9.70;68.47
64189;BME280;50493;50.970;10.082;2023-03-31T00:16:02;98413.41;;;10.05;67.84
64189;BME280;50493;50.970;10.082;2023-03-31T00:18:28;98411.59;;;9.82;67.40
64189;BME280;50493;50.970;10.082;2023-03-31T00:20:57;98398.88;;;9.98;67.84
64189;BME280;50493;50.970;10.082;2023-03-31T00:23:23;98395.75;;;9.88;67.44
64189;BME280;50493;50.970;10.082;2023-03-31T00:25:52;98396.72;;;9.86;66.98
64189;BME280;50493;50.970;10.082;2023-03-31T00:28:18;98391.91;;;9.73;67.26
64189;BME280;50493;50.970;10.082;2023-03-31T00:30:44;98387.00;;;9.89;66.43
64189;BME280;50493;50.970;10.082;2023-03-31T00:33:11;98379.75;;;9.72;67.62
64189;BME280;50493;50.970;10.082;2023-03-31T00:35:36;98375.88;;;9.59;67.80
64189;BME280;50493;50.970;10.082;2023-03-31T00:38:03;98373.84;;;9.67;67.46
64189;BME280;50493;50.970;10.082;2023-03-31T00:40:30;98371.13;;;9.70;66.89
64189;BME280;50493;50.970;10.082;2023-03-31T00:42:55;98365.31;;;9.62;67.14
64189;BME280;50493;50.970;10.082;2023-03-31T00:45:27;98377.94;;;9.49;68.07
64189;BME280;50493;50.970;10.082;2023-03-31T00:47:59;98369.94;;;9.54;68.28
64189;BME280;50493;50.970;10.082;2023-03-31T00:50:29;98363.81;;;9.55;67.12
64189;BME280;50493;50.970;10.082;2023-03-31T00:52:59;98361.34;;;9.52;67.65
64189;BME280;50493;50.970;10.082;2023-03-31T00:55:31;98352.56;;;9.54;67.54
64189;BME280;50493;50.970;10.082;2023-03-31T00:57:59;98354.59;;;9.44;68.42
64189;BME280;50493;50.970;10.082;2023-03-31T01:00:26;98360.03;;;9.38;68.28
64189;BME280;50493;50.970;10.082;2023-03-31T01:02:55;98351.69;;;9.27;68.06
64189;BME280;50493;50.970;10.082;2023-03-31T01:05:25;98348.78;;;9.36;67.87
64189;BME280;50493;50.970;10.082;2023-03-31T01:07:53;98342.22;;;10.00;66.21
64189;BME280;50493;50.970;10.082;2023-03-31T01:10:19;98342.53;;;10.16;65.87
64189;BME280;50493;50.970;10.082;2023-03-31T01:12:48;98336.47;;;10.16;65.29
64189;BME280;50493;50.970;10.082;2023-03-31T01:15:14;98333.16;;;10.10;65.21
64189;BME280;50493;50.970;10.082;2023-03-31T01:17:40;98330.34;;;10.17;65.02
64189;BME280;50493;50.970;10.082;2023-03-31T01:20:16;98333.72;;;10.19;65.10
64189;BME280;50493;50.970;10.082;2023-03-31T01:23:05;98329.97;;;10.02;65.18
64189;BME280;50493;50.970;10.082;2023-03-31T01:26:02;98327.63;;;9.71;67.00
64189;BME280;50493;50.970;10.082;2023-03-31T01:28:36;98325.53;;;9.80;66.50
64189;BME280;50493;50.970;10.082;2023-03-31T01:31:25;98321.34;;;10.00;66.14
64189;BME280;50493;50.970;10.082;2023-03-31T01:34:22;98309.66;;;10.36;65.44
64189;BME280;50493;50.970;10.082;2023-03-31T01:37:34;98308.19;;;10.27;64.95
64189;BME280;50493;50.970;10.082;2023-03-31T01:40:29;98301.03;;;10.32;64.41
64189;BME280;50493;50.970;10.082;2023-03-31T01:43:04;98302.16;;;10.01;65.38
64189;BME280;50493;50.970;10.082;2023-03-31T01:45:38;98290.94;;;10.23;65.10
64189;BME280;50493;50.970;10.082;2023-03-31T01:48:11;98295.22;;;10.00;65.21
64189;BME280;50493;50.970;10.082;2023-03-31T01:50:44;98289.78;;;10.30;64.73
64189;BME280;50493;50.970;10.082;2023-03-31T01:53:16;98284.25;;;10.16;64.39
64189;BME280;50493;50.970;10.082;2023-03-31T01:55:50;98279.13;;;10.12;64.73
64189;BME280;50493;50.970;10.082;2023-03-31T01:58:19;98268.31;;;10.22;64.45
64189;BME280;50493;50.970;10.082;2023-03-31T02:00:48;98257.88;;;10.45;64.11
64189;BME280;50493;50.970;10.082;2023-03-31T02:03:23;98246.16;;;10.56;63.99
64189;BME280;50493;50.970;10.082;2023-03-31T02:05:52;98247.34;;;10.25;64.58
64189;BME280;50493;50.970;10.082;2023-03-31T02:08:21;98242.50;;;10.60;63.74
64189;BME280;50493;50.970;10.082;2023-03-31T02:10:50;98236.19;;;10.43;64.59
64189;BME280;50493;50.970;10.082;2023-03-31T02:13:17;98239.53;;;10.47;64.37
64189;BME280;50493;50.970;10.082;2023-03-31T02:15:50;98238.97;;;10.61;63.59
64189;BME280;50493;50.970;10.082;2023-03-31T02:18:22;98232.22;;;10.55;63.88
64189;BME280;50493;50.970;10.082;2023-03-31T02:20:51;98228.47;;;10.40;64.56
64189;BME280;50493;50.970;10.082;2023-03-31T02:23:22;98230.34;;;10.59;63.63
64189;BME280;50493;50.970;10.082;2023-03-31T02:25:52;98216.25;;;10.63;63.79
64189;BME280;50493;50.970;10.082;2023-03-31T02:28:21;98210.22;;;10.61;63.72
64189;BME280;50493;50.970;10.082;2023-03-31T02:30:52;98215.81;;;10.52;64.38
64189;BME280;50493;50.970;10.082;2023-03-31T02:33:20;98205.19;;;10.34;64.33
64189;BME280;50493;50.970;10.082;2023-03-31T02:35:45;98204.38;;;10.32;64.63
64189;BME280;50493;50.970;10.082;2023-03-31T02:38:11;98200.00;;;10.10;65.61
64189;BME280;50493;50.970;10.082;2023-03-31T02:40:36;98199.22;;;10.30;65.65
64189;BME280;50493;50.970;10.082;2023-03-31T02:43:03;98204.31;;;10.11;67.52
64189;BME280;50493;50.970;10.082;2023-03-31T02:45:37;98195.81;;;10.06;67.23
64189;BME280;50493;50.970;10.082;2023-03-31T02:48:04;98196.53;;;10.10;68.63
64189;BME280;50493;50.970;10.082;2023-03-31T02:50:34;98198.22;;;9.89;67.99
64189;BME280;50493;50.970;10.082;2023-03-31T02:53:07;98185.22;;;10.09;68.70
64189;BME280;50493;50.970;10.082;2023-03-31T02:55:49;98182.75;;;10.06;68.70
64189;BME280;50493;50.970;10.082;2023-03-31T02:58:32;98179.03;;;9.90;69.28
64189;BME280;50493;50.970;10.082;2023-03-31T03:01:07;98172.09;;;9.89;70.41
64189;BME280;50493;50.970;10.082;2023-03-31T03:03:42;98170.53;;;9.85;71.18
64189;BME280;50493;50.970;10.082;2023-03-31T03:06:19;98164.56;;;9.81;71.95
64189;BME280;50493;50.970;10.082;2023-03-31T03:09:02;98162.19;;;9.51;72.08
64189;BME280;50493;50.970;10.082;2023-03-31T03:11:34;98151.03;;;9.48;69.88
64189;BME280;50493;50.970;10.082;2023-03-31T03:14:09;98139.81;;;9.91;70.17
64189;BME280;50493;50.970;10.082;2023-03-31T03:16:40;98142.72;;;9.84;70.69
64189;BME280;50493;50.970;10.082;2023-03-31T03:19:07;98139.06;;;9.88;72.40
64189;BME280;50493;50.970;10.082;2023-03-31T03:21:33;98143.31;;;9.68;70.98
64189;BME280;50493;50.970;10.082;2023-03-31T03:23:59;98134.94;;;9.60;72.27
64189;BME280;50493;50.970;10.082;2023-03-31T03:26:26;98126.63;;;9.49;73.08
64189;BME280;50493;50.970;10.082;2023-03-31T03:28:55;98124.72;;;9.54;73.20
64189;BME280;50493;50.970;10.082;2023-03-31T03:31:22;98121.53;;;9.45;72.47
64189;BME280;50493;50.970;10.082;2023-03-31T03:33:50;98122.03;;;9.55;73.43
64189;BME280;50493;50.970;10.082;2023-03-31T03:36:16;98127.72;;;9.43;67.49
64189;BME280;50493;50.970;10.082;2023-03-31T03:38:41;98126.97;;;9.63;73.05
64189;BME280;50493;50.970;10.082;2023-03-31T03:41:07;98125.72;;;9.73;71.91
64189;BME280;50493;50.970;10.082;2023-03-31T03:43:32;98121.88;;;9.60;72.97
64189;BME280;50493;50.970;10.082;2023-03-31T03:45:57;98116.50;;;9.87;72.99
64189;BME280;50493;50.970;10.082;2023-03-31T03:48:24;98111.41;;;9.84;71.65
64189;BME280;50493;50.970;10.082;2023-03-31T03:50:50;98103.63;;;9.60;71.77
64189;BME280;50493;50.970;10.082;2023-03-31T03:53:17;98090.41;;;9.87;71.93
64189;BME280;50493;50.970;10.082;2023-03-31T03:55:43;98084.53;;;9.82;72.31
64189;BME280;50493;50.970;10.082;2023-03-31T03:58:09;98079.28;;;9.59;71.54
64189;BME280;50493;50.970;10.082;2023-03-31T04:00:35;98073.06;;;9.86;71.13
64189;BME280;50493;50.970;10.082;2023-03-31T04:03:00;98066.78;;;9.90;71.47
64189;BME280;50493;50.970;10.082;2023-03-31T04:05:28;98060.28;;;10.00;70.81
64189;BME280;50493;50.970;10.082;2023-03-31T04:07:53;98053.72;;;10.12;72.04
64189;BME280;50493;50.970;10.082;2023-03-31T04:10:19;98046.53;;;10.17;72.48
64189;BME280;50493;50.970;10.082;2023-03-31T04:12:44;98037.75;;;10.40;70.69
64189;BME280;50493;50.970;10.082;2023-03-31T04:15:10;98033.69;;;10.33;70.83
64189;BME280;50493;50.970;10.082;2023-03-31T04:17:35;98029.41;;;10.53;71.46
64189;BME280;50493;50.970;10.082;2023-03-31T04:20:03;98018.28;;;10.47;71.68
64189;BME280;50493;50.970;10.082;2023-03-31T04:22:31;98016.03;;;10.40;69.71
64189;BME280;50493;50.970;10.082;2023-03-31T04:25:05;98006.16;;;10.46;71.84
64189;BME280;50493;50.970;10.082;2023-03-31T04:27:40;97994.41;;;10.36;69.10
64189;BME280;50493;50.970;10.082;2023-03-31T04:30:12;97982.38;;;10.32;68.99
64189;BME280;50493;50.970;10.082;2023-03-31T04:32:38;97970.94;;;10.35;69.93
64189;BME280;50493;50.970;10.082;2023-03-31T04:35:04;97971.00;;;10.33;70.99
64189;BME280;50493;50.970;10.082;2023-03-31T04:37:30;97961.31;;;10.35;72.34
64189;BME280;50493;50.970;10.082;2023-03-31T04:39:59;97955.44;;;10.30;72.69
64189;BME280;50493;50.970;10.082;2023-03-31T04:42:31;97953.94;;;10.24;70.36
64189;BME280;50493;50.970;10.082;2023-03-31T04:44:56;97946.06;;;9.85;65.71
64189;BME280;50493;50.970;10.082;2023-03-31T04:47:22;97947.25;;;9.98;68.06
64189;BME280;50493;50.970;10.082;2023-03-31T04:49:47;97945.41;;;10.00;68.97
64189;BME280;50493;50.970;10.082;2023-03-31T04:52:12;97941.88;;;9.80;67.59
64189;BME280;50493;50.970;10.082;2023-03-31T04:54:39;97950.25;;;9.89;68.35
64189;BME280;50493;50.970;10.082;2023-03-31T04:57:05;97954.03;;;10.02;70.72
64189;BME280;50493;50.970;10.082;2023-03-31T04:59:30;97953.66;;;9.91;70.81
64189;BME280;50493;50.970;10.082;2023-03-31T05:01:55;97966.19;;;10.03;70.29
64189;BME280;50493;50.970;10.082;2023-03-31T05:04:21;97968.53;;;10.09;70.48
64189;BME280;50493;50.970;10.082;2023-03-31T05:06:46;97970.47;;;9.84;70.81
64189;BME280;50493;50.970;10.082;2023-03-31T05:09:12;97968.91;;;10.00;69.27
64189;BME280;50493;50.970;10.082;2023-03-31T05:11:38;97969.19;;;10.14;69.45
64189;BME280;50493;50.970;10.082;2023-03-31T05:14:04;97953.66;;;10.11;71.35
64189;BME280;50493;50.970;10.082;2023-03-31T05:16:29;97954.94;;;10.22;68.81
64189;BME280;50493;50.970;10.082;2023-03-31T05:18:55;97940.50;;;10.34;69.26
64189;BME280;50493;50.970;10.082;2023-03-31T05:21:20;97938.88;;;10.31;70.86
64189;BME280;50493;50.970;10.082;2023-03-31T05:23:46;97912.25;;;10.02;69.97
64189;BME280;50493;50.970;10.082;2023-03-31T05:26:12;97892.03;;;10.07;68.86
64189;BME280;50493;50.970;10.082;2023-03-31T05:28:40;97878.06;;;10.08;70.00
64189;BME280;50493;50.970;10.082;2023-03-31T05:31:07;97877.81;;;9.94;67.74
64189;BME280;50493;50.970;10.082;2023-03-31T05:33:33;97886.47;;;10.15;68.12
64189;BME280;50493;50.970;10.082;2023-03-31T05:35:58;97885.97;;;10.26;71.04
64189;BME280;50493;50.970;10.082;2023-03-31T05:38:24;97894.09;;;10.20;68.32
64189;BME280;50493;50.970;10.082;2023-03-31T05:40:52;97884.50;;;10.20;70.20
64189;BME280;50493;50.970;10.082;2023-03-31T05:43:18;97889.88;;;10.17;69.32
64189;BME280;50493;50.970;10.082;2023-03-31T05:45:45;97877.94;;;10.11;70.76
64189;BME280;50493;50.970;10.082;2023-03-31T05:48:10;97868.34;;;10.31;67.64
64189;BME280;50493;50.970;10.082;2023-03-31T05:50:36;97869.03;;;10.36;68.94
64189;BME280;50493;50.970;10.082;2023-03-31T05:53:01;97864.69;;;10.56;70.80
64189;BME280;50493;50.970;10.082;2023-03-31T05:55:26;97863.25;;;10.48;70.84
64189;BME280;50493;50.970;10.082;2023-03-31T05:57:52;97861.91;;;10.40;70.06
64189;BME280;50493;50.970;10.082;2023-03-31T06:00:19;97862.00;;;9.97;70.37
64189;BME280;50493;50.970;10.082;2023-03-31T06:02:45;97870.59;;;10.40;68.77
64189;BME280;50493;50.970;10.082;2023-03-31T06:05:11;97862.59;;;10.43;68.14
64189;BME280;50493;50.970;10.082;2023-03-31T06:07:36;97857.09;;;10.50;69.13
64189;BME280;50493;50.970;10.082;2023-03-31T06:10:02;97859.81;;;10.27;69.37
64189;BME280;50493;50.970;10.082;2023-03-31T06:12:27;97856.66;;;10.00;70.10
64189;BME280;50493;50.970;10.082;2023-03-31T06:14:53;97857.53;;;10.40;68.99
64189;BME280;50493;50.970;10.082;2023-03-31T06:17:18;97851.38;;;10.60;70.39
64189;BME280;50493;50.970;10.082;2023-03-31T06:19:45;97849.00;;;10.35;69.48
64189;BME280;50493;50.970;10.082;2023-03-31T06:22:10;97850.06;;;10.31;69.23
64189;BME280;50493;50.970;10.082;2023-03-31T06:24:35;97845.88;;;10.47;67.12
64189;BME280;50493;50.970;10.082;2023-03-31T06:27:01;97835.09;;;10.16;68.95
64189;BME280;50493;50.970;10.082;2023-03-31T06:29:27;97838.91;;;10.08;67.28
64189;BME280;50493;50.970;10.082;2023-03-31T06:31:53;97850.66;;;9.57;69.44
64189;BME280;50493;50.970;10.082;2023-03-31T06:34:18;97840.28;;;9.55;67.09
64189;BME280;50493;50.970;10.082;2023-03-31T06:36:45;97845.53;;;9.76;68.34
64189;BME280;50493;50.970;10.082;2023-03-31T06:39:10;97834.09;;;9.78;68.53
64189;BME280;50493;50.970;10.082;2023-03-31T06:41:36;97836.22;;;9.89;67.53
64189;BME280;50493;50.970;10.082;2023-03-31T06:44:03;97819.03;;;10.25;66.15
64189;BME280;50493;50.970;10.082;2023-03-31T06:46:28;97823.50;;;10.42;66.71
64189;BME280;50493;50.970;10.082;2023-03-31T06:48:54;97824.63;;;10.36;66.48
64189;BME280;50493;50.970;10.082;2023-03-31T06:51:19;97824.91;;;10.09;66.47
64189;BME280;50493;50.970;10.082;2023-03-31T06:53:46;97819.84;;;10.06;67.91
64189;BME280;50493;50.970;10.082;2023-03-31T06:56:11;97814.47;;;9.70;68.43
64189;BME280;50493;50.970;10.082;2023-03-31T06:58:37;97819.03;;;10.25;66.56
64189;BME280;50493;50.970;10.082;2023-03-31T07:01:03;97816.50;;;10.23;67.48
64189;BME280;50493;50.970;10.082;2023-03-31T07:03:30;97814.41;;;10.51;66.45
64189;BME280;50493;50.970;10.082;2023-03-31T07:05:55;97814.19;;;10.36;66.34
64189;BME280;50493;50.970;10.082;2023-03-31T07:08:21;97806.00;;;10.44;66.03
64189;BME280;50493;50.970;10.082;2023-03-31T07:10:53;97801.81;;;10.59;66.08
64189;BME280;50493;50.970;10.082;2023-03-31T07:13:18;97802.94;;;10.72;66.43
64189;BME280;50493;50.970;10.082;2023-03-31T07:15:46;97806.13;;;10.60;68.46
64189;BME280;50493;50.970;10.082;2023-03-31T07:18:13;97809.84;;;10.54;67.27
64189;BME280;50493;50.970;10.082;2023-03-31T07:20:40;97803.78;;;10.35;70.03
64189;BME280;50493;50.970;10.082;2023-03-31T07:23:06;97803.00;;;10.52;69.33
64189;BME280;50493;50.970;10.082;2023-03-31T07:25:33;97799.69;;;10.29;68.66
64189;BME280;50493;50.970;10.082;2023-03-31T07:28:00;97797.00;;;10.30;72.28
64189;BME280;50493;50.970;10.082;2023-03-31T07:30:26;97789.66;;;10.20;70.56
64189;BME280;50493;50.970;10.082;2023-03-31T07:32:52;97786.81;;;10.05;70.79
64189;BME280;50493;50.970;10.082;2023-03-31T07:35:19;97779.56;;;10.12;69.67
64189;BME280;50493;50.970;10.082;2023-03-31T07:37:46;97769.81;;;10.16;72.20
64189;BME280;50493;50.970;10.082;2023-03-31T07:40:14;97761.03;;;10.37;71.77
64189;BME280;50493;50.970;10.082;2023-03-31T07:42:41;97746.59;;;10.47;70.78
64189;BME280;50493;50.970;10.082;2023-03-31T07:45:08;97743.50;;;10.39;70.75
64189;BME280;50493;50.970;10.082;2023-03-31T07:47:34;97744.94;;;10.46;68.84
64189;BME280;50493;50.970;10.082;2023-03-31T07:50:00;97743.06;;;10.29;69.28
64189;BME280;50493;50.970;10.082;2023-03-31T07:52:25;97739.81;;;10.43;72.50
64189;BME280;50493;50.970;10.082;2023-03-31T07:54:50;97736.06;;;10.68;72.67
64189;BME280;50493;50.970;10.082;2023-03-31T07:57:16;97730.47;;;10.57;69.67
64189;BME280;50493;50.970;10.082;2023-03-31T07:59:44;97729.59;;;10.75;70.43
64189;BME280;50493;50.970;10.082;2023-03-31T08:02:11;97728.69;;;10.94;72.15
64189;BME280;50493;50.970;10.082;2023-03-31T08:04:37;97720.94;;;10.92;70.31
64189;BME280;50493;50.970;10.082;2023-03-31T08:07:03;97723.75;;;10.88;70.40
64189;BME280;50493;50.970;10.082;2023-03-31T08:09:29;97723.31;;;10.79;70.12
64189;BME280;50493;50.970;10.082;2023-03-31T08:11:54;97723.44;;;10.59;70.46
64189;BME280;50493;50.970;10.082;2023-03-31T08:14:20;97723.00;;;10.68;72.07
64189;BME280;50493;50.970;10.082;2023-03-31T08:16:45;97717.13;;;10.63;71.98
64189;BME280;50493;50.970;10.082;2023-03-31T08:19:12;97718.38;;;10.56;68.86
64189;BME280;50493;50.970;10.082;2023-03-31T08:21:37;97708.34;;;10.46;70.98
64189;BME280;50493;50.970;10.082;2023-03-31T08:24:02;97704.31;;;10.39;69.49
64189;BME280;50493;50.970;10.082;2023-03-31T08:26:28;97703.19;;;9.88;70.05
64189;BME280;50493;50.970;10.082;2023-03-31T08:28:56;97699.31;;;10.16;71.36
64189;BME280;50493;50.970;10.082;2023-03-31T08:31:23;97692.38;;;10.53;72.53
64189;BME280;50493;50.970;10.082;2023-03-31T08:33:48;97689.28;;;10.44;71.30
64189;BME280;50493;50.970;10.082;2023-03-31T08:36:15;97688.56;;;10.60;73.92
64189;BME280;50493;50.970;10.082;2023-03-31T08:38:42;97698.34;;;10.18;66.84
64189;BME280;50493;50.970;10.082;2023-03-31T08:41:22;97701.28;;;9.53;66.23
64189;BME280;50493;50.970;10.082;2023-03-31T08:43:49;97699.53;;;9.33;68.48
64189;BME280;50493;50.970;10.082;2023-03-31T08:46:17;97694.03;;;9.39;74.99
64189;BME280;50493;50.970;10.082;2023-03-31T08:48:45;97666.59;;;9.70;72.25
64189;BME280;50493;50.970;10.082;2023-03-31T08:51:17;97670.41;;;9.63;76.16
64189;BME280;50493;50.970;10.082;2023-03-31T08:53:46;97663.22;;;9.49;75.24
64189;BME280;50493;50.970;10.082;2023-03-31T08:56:17;97661.09;;;9.18;71.69
64189;BME280;50493;50.970;10.082;2023-03-31T08:58:47;97654.50;;;9.49;72.02
64189;BME280;50493;50.970;10.082;2023-03-31T09:01:20;97653.34;;;9.56;73.49
64189;BME280;50493;50.970;10.082;2023-03-31T09:03:58;97646.00;;;9.64;70.70
64189;BME280;50493;50.970;10.082;2023-03-31T09:06:35;97655.72;;;9.41;72.69
64189;BME280;50493;50.970;10.082;2023-03-31T09:09:04;97648.91;;;9.18;74.69
64189;BME280;50493;50.970;10.082;2023-03-31T09:11:34;97651.28;;;9.43;72.81
64189;BME280;50493;50.970;10.082;2023-03-31T09:14:12;97632.56;;;9.54;72.27
64189;BME280;50493;50.970;10.082;2023-03-31T09:16:45;97625.16;;;9.64;70.77
64189;BME280;50493;50.970;10.082;2023-03-31T09:19:15;97618.56;;;9.36;72.76
64189;BME280;50493;50.970;10.082;2023-03-31T09:21:45;97609.69;;;9.59;73.59
64189;BME280;50493;50.970;10.082;2023-03-31T09:24:14;97600.59;;;9.87;73.43
64189;BME280;50493;50.970;10.082;2023-03-31T09:26:44;97600.19;;;9.58;70.28
64189;BME280;50493;50.970;10.082;2023-03-31T09:29:13;97609.63;;;9.02;69.71
64189;BME280;50493;50.970;10.082;2023-03-31T09:31:43;97601.44;;;9.50;71.57
64189;BME280;50493;50.970;10.082;2023-03-31T09:34:13;97594.66;;;9.84;70.34
64189;BME280;50493;50.970;10.082;2023-03-31T09:36:39;97593.69;;;10.04;72.14
64189;BME280;50493;50.970;10.082;2023-03-31T09:39:10;97596.91;;;10.28;71.24
64189;BME280;50493;50.970;10.082;2023-03-31T09:41:37;97597.53;;;10.33;72.19
64189;BME280;50493;50.970;10.082;2023-03-31T09:44:10;97583.16;;;10.59;68.84
64189;BME280;50493;50.970;10.082;2023-03-31T09:46:37;97579.41;;;10.65;73.54
64189;BME280;50493;50.970;10.082;2023-03-31T09:49:08;97572.06;;;10.56;71.46
64189;BME280;50493;50.970;10.082;2023-03-31T09:51:36;97567.28;;;10.46;70.05
64189;BME280;50493;50.970;10.082;2023-03-31T09:54:11;97563.66;;;10.31;66.07
64189;BME280;50493;50.970;10.082;2023-03-31T09:56:48;97575.41;;;10.58;71.01
64189;BME280;50493;50.970;10.082;2023-03-31T09:59:18;97562.88;;;10.82;71.20
64189;BME280;50493;50.970;10.082;2023-03-31T10:01:46;97560.41;;;11.12;66.33
64189;BME280;50493;50.970;10.082;2023-03-31T10:04:18;97550.41;;;11.21;69.17
64189;BME280;50493;50.970;10.082;2023-03-31T10:06:44;97553.75;;;11.72;67.99
64189;BME280;50493;50.970;10.082;2023-03-31T10:09:14;97541.84;;;12.13;66.00
64189;BME280;50493;50.970;10.082;2023-03-31T10:11:51;97538.50;;;11.95;64.97
64189;BME280;50493;50.970;10.082;2023-03-31T10:14:23;97529.66;;;12.28;69.97
64189;BME280;50493;50.970;10.082;2023-03-31T10:16:52;97522.22;;;12.65;64.25
64189;BME280;50493;50.970;10.082;2023-03-31T10:19:20;97517.78;;;13.10;67.99
64189;BME280;50493;50.970;10.082;2023-03-31T10:21:48;97509.63;;;12.86;60.56
64189;BME280;50493;50.970;10.082;2023-03-31T10:24:20;97509.94;;;13.79;60.95
64189;BME280;50493;50.970;10.082;2023-03-31T10:26:47;97503.16;;;14.81;54.43
64189;BME280;50493;50.970;10.082;2023-03-31T10:29:18;97495.91;;;16.09;54.28
64189;BME280;50493;50.970;10.082;2023-03-31T10:31:46;97501.19;;;15.48;58.87
64189;BME280;50493;50.970;10.082;2023-03-31T10:34:14;97491.22;;;16.48;53.17
64189;BME280;50493;50.970;10.082;2023-03-31T10:36:45;97493.06;;;17.05;47.22
64189;BME280;50493;50.970;10.082;2023-03-31T10:39:14;97490.94;;;17.65;47.68
64189;BME280;50493;50.970;10.082;2023-03-31T10:41:42;97488.88;;;17.13;46.94
64189;BME280;50493;50.970;10.082;2023-03-31T10:44:29;97493.66;;;16.74;50.26
64189;BME280;50493;50.970;10.082;2023-03-31T10:47:03;97478.78;;;17.18;49.41
64189;BME280;50493;50.970;10.082;2023-03-31T10:49:28;97483.53;;;15.98;52.45
64189;BME280;50493;50.970;10.082;2023-03-31T10:51:56;97472.47;;;16.29;48.91
64189;BME280;50493;50.970;10.082;2023-03-31T10:54:23;97478.94;;;15.76;49.94
64189;BME280;50493;50.970;10.082;2023-03-31T10:56:51;97471.22;;;15.62;49.84
64189;BME280;50493;50.970;10.082;2023-03-31T10:59:28;97469.09;;;14.80;53.12
64189;BME280;50493;50.970;10.082;2023-03-31T11:02:11;97461.94;;;14.43;53.12
64189;BME280;50493;50.970;10.082;2023-03-31T11:04:44;97460.06;;;14.32;53.56
64189;BME280;50493;50.970;10.082;2023-03-31T11:07:22;97470.66;;;13.78;55.32
64189;BME280;50493;50.970;10.082;2023-03-31T11:10:00;97462.13;;;13.74;57.01
64189;BME280;50493;50.970;10.082;2023-03-31T11:12:31;97467.25;;;13.63;56.37
64189;BME280;50493;50.970;10.082;2023-03-31T11:15:07;97467.50;;;13.86;56.15
64189;BME280;50493;50.970;10.082;2023-03-31T11:17:50;97460.34;;;13.06;58.57
64189;BME280;50493;50.970;10.082;2023-03-31T11:20:24;97459.34;;;13.36;56.56
64189;BME280;50493;50.970;10.082;2023-03-31T11:22:56;97445.44;;;13.75;55.96
64189;BME280;50493;50.970;10.082;2023-03-31T11:25:29;97448.88;;;14.03;55.21
64189;BME280;50493;50.970;10.082;2023-03-31T11:28:18;97430.13;;;13.82;55.00
64189;BME280;50493;50.970;10.082;2023-03-31T11:30:51;97428.69;;;13.91;56.54
64189;BME280;50493;50.970;10.082;2023-03-31T11:33:30;97426.41;;;14.25;57.22
64189;BME280;50493;50.970;10.082;2023-03-31T11:36:01;97431.13;;;14.45;55.29
64189;BME280;50493;50.970;10.082;2023-03-31T11:41:28;97421.31;;;13.56;57.08
64189;BME280;50493;50.970;10.082;2023-03-31T11:44:00;97421.38;;;12.71;58.24
64189;BME280;50493;50.970;10.082;2023-03-31T11:46:32;97425.34;;;12.35;62.94
64189;BME280;50493;50.970;10.082;2023-03-31T11:49:02;97422.03;;;12.31;62.69
64189;BME280;50493;50.970;10.082;2023-03-31T11:51:31;97419.22;;;12.34;61.76
64189;BME280;50493;50.970;10.082;2023-03-31T11:54:02;97428.47;;;11.96;65.66
64189;BME280;50493;50.970;10.082;2023-03-31T11:56:37;97426.75;;;12.55;57.63
64189;BME280;50493;50.970;10.082;2023-03-31T11:59:05;97420.06;;;12.92;58.38
64189;BME280;50493;50.970;10.082;2023-03-31T12:01:37;97433.84;;;12.81;58.15
64189;BME280;50493;50.970;10.082;2023-03-31T12:04:11;97417.34;;;13.36;59.33
64189;BME280;50493;50.970;10.082;2023-03-31T12:06:40;97417.69;;;13.71;59.02
64189;BME280;50493;50.970;10.082;2023-03-31T12:09:12;97411.94;;;13.52;57.37
64189;BME280;50493;50.970;10.082;2023-03-31T12:11:43;97420.38;;;13.57;52.54
64189;BME280;50493;50.970;10.082;2023-03-31T12:14:22;97428.38;;;13.68;52.47
64189;BME280;50493;50.970;10.082;2023-03-31T12:16:52;97427.41;;;13.56;50.87
64189;BME280;50493;50.970;10.082;2023-03-31T12:19:21;97439.56;;;13.03;52.75
64189;BME280;50493;50.970;10.082;2023-03-31T12:21:55;97449.22;;;12.59;56.46
64189;BME280;50493;50.970;10.082;2023-03-31T12:24:20;97439.34;;;12.62;53.97
64189;BME280;50493;50.970;10.082;2023-03-31T12:26:55;97464.94;;;12.59;57.10
64189;BME280;50493;50.970;10.082;2023-03-31T12:29:29;97452.53;;;12.18;56.06
64189;BME280;50493;50.970;10.082;2023-03-31T12:31:57;97456.94;;;12.31;61.62
64189;BME280;50493;50.970;10.082;2023-03-31T12:34:25;97458.34;;;12.23;57.21
64189;BME280;50493;50.970;10.082;2023-03-31T12:37:07;97470.47;;;11.79;58.24
64189;BME280;50493;50.970;10.082;2023-03-31T12:39:46;97479.41;;;11.11;58.92
64189;BME280;50493;50.970;10.082;2023-03-31T12:42:35;97471.00;;;10.90;57.99
64189;BME280;50493;50.970;10.082;2023-03-31T12:45:13;97477.38;;;10.33;61.32
64189;BME280;50493;50.970;10.082;2023-03-31T12:47:58;97493.69;;;10.21;66.11
64189;BME280;50493;50.970;10.082;2023-03-31T12:50:37;97486.47;;;9.91;72.38
64189;BME280;50493;50.970;10.082;2023-03-31T12:53:13;97476.00;;;9.73;67.42
64189;BME280;50493;50.970;10.082;2023-03-31T12:55:40;97480.16;;;9.77;69.67
64189;BME280;50493;50.970;10.082;2023-03-31T12:58:36;97471.38;;;9.78;66.10
64189;BME280;50493;50.970;10.082;2023-03-31T13:01:05;97473.31;;;9.75;67.79
64189;BME280;50493;50.970;10.082;2023-03-31T13:03:42;97471.94;;;9.49;65.49
64189;BME280;50493;50.970;10.082;2023-03-31T13:06:09;97466.91;;;9.63;68.49
64189;BME280;50493;50.970;10.082;2023-03-31T13:08:52;97461.72;;;9.80;68.59